sensor_id;sensor_type;location;lat;lon;timestamp;temperature;humidity
11609;DHT22;5860;52.018;8.536;2024-01-16T00:00:58;1.00;99.90
11609;DHT22;5860;52.018;8.536;2024-01-16T00:03:25;1.00;99.90
11609;DHT22;5860;52.018;8.536;2024-01-16T00:05:52;1.00;99.90
11609;DHT22;5860;52.018;8.536;2024-01-16T00:08:19;1.00;99.90
11609;DHT22;5860;52.018;8.536;2024-01-16T00:10:45;1.00;99.90
11609;DHT22;5860;52.018;8.536;2024-01-16T00:13:13;1.00;99.90
11609;DHT22;5860;52.018;8.536;2024-01-16T00:15:39;1.00;99.90
11609;DHT22;5860;52.018;8.536;2024-01-16T00:18:08;0.90;99.90
11609;DHT22;5860;52.018;8.536;2024-01-16T00:20:35;1.00;99.90
11609;DHT22;5860;52.018;8.536;2024-01-16T00:23:03;1.00;99.90
11609;DHT22;5860;52.018;8.536;2024-01-16T00:25:30;1.00;99.90
11609;DHT22;5860;52.018;8.536;2024-01-16T00:27:57;1.00;99.90
11609;DHT22;5860;52.018;8.536;2024-01-16T00:30:23;1.00;99.90
11609;DHT22;5860;52.018;8.536;2024-01-16T00:32:50;1.00;99.90
11609;DHT22;5860;52.018;8.536;2024-01-16T00:35:17;1.00;99.90
11609;DHT22;5860;52.018;8.536;2024-01-16T00:37:44;0.90;99.90
11609;DHT22;5860;52.018;8.536;2024-01-16T00:40:11;0.90;99.90
11609;DHT22;5860;52.018;8.536;2024-01-16T00:42:38;1.00;99.90
11609;DHT22;5860;52.018;8.536;2024-01-16T00:45:06;0.90;99.90
11609;DHT22;5860;52.018;8.536;2024-01-16T00:47:32;0.90;99.90
11609;DHT22;5860;52.018;8.536;2024-01-16T00:50:00;0.90;99.90
11609;DHT22;5860;52.018;8.536;2024-01-16T00:52:28;1.00;99.90
11609;DHT22;5860;52.018;8.536;2024-01-16T00:54:55;0.90;99.90
11609;DHT22;5860;52.018;8.536;2024-01-16T00:57:22;0.80;99.90
11609;DHT22;5860;52.018;8.536;2024-01-16T00:59:49;0.80;99.90
11609;DHT22;5860;52.018;8.536;2024-01-16T01:02:16;0.90;99.90
11609;DHT22;5860;52.018;8.536;2024-01-16T01:04:43;0.80;99.90
11609;DHT22;5860;52.018;8.536;2024-01-16T01:07:16;0.80;99.90
11609;DHT22;5860;52.018;8.536;2024-01-16T01:09:43;0.80;99.90
11609;DHT22;5860;52.018;8.536;2024-01-16T01:12:09;0.80;99.90
11609;DHT22;5860;52.018;8.536;2024-01-16T01:14:36;0.80;99.90
11609;DHT22;5860;52.018;8.536;2024-01-16T01:17:04;0.90;99.90
11609;DHT22;5860;52.018;8.536;2024-01-16T01:19:31;0.80;99.90
11609;DHT22;5860;52.018;8.536;2024-01-16T01:22:00;0.80;99.90
11609;DHT22;5860;52.018;8.536;2024-01-16T01:24:27;0.80;99.90
11609;DHT22;5860;52.018;8.536;2024-01-16T01:26:54;0.80;99.90
11609;DHT22;5860;52.018;8.536;2024-01-16T01:29:21;0.70;99.90
11609;DHT22;5860;52.018;8.536;2024-01-16T01:31:48;0.70;99.90
11609;DHT22;5860;52.018;8.536;2024-01-16T01:34:15;0.60;99.90
11609;DHT22;5860;52.018;8.536;2024-01-16T01:36:42;0.60;99.90
11609;DHT22;5860;52.018;8.536;2024-01-16T01:39:10;0.60;99.90
11609;DHT22;5860;52.018;8.536;2024-01-16T01:41:40;0.50;99.90
11609;DHT22;5860;52.018;8.536;2024-01-16T01:44:07;0.50;99.90
11609;DHT22;5860;52.018;8.536;2024-01-16T01:46:35;0.60;99.90
11609;DHT22;5860;52.018;8.536;2024-01-16T01:49:03;0.60;99.90
11609;DHT22;5860;52.018;8.536;2024-01-16T01:51:30;0.60;99.90
11609;DHT22;5860;52.018;8.536;2024-01-16T01:53:58;0.70;99.90
11609;DHT22;5860;52.018;8.536;2024-01-16T01:56:26;0.70;99.90
11609;DHT22;5860;52.018;8.536;2024-01-16T01:58:56;0.70;99.90
11609;DHT22;5860;52.018;8.536;2024-01-16T02:01:28;0.70;99.90
11609;DHT22;5860;52.018;8.536;2024-01-16T02:03:57;0.80;99.90
11609;DHT22;5860;52.018;8.536;2024-01-16T02:06:24;0.80;99.90
11609;DHT22;5860;52.018;8.536;2024-01-16T02:08:51;0.80;99.90
11609;DHT22;5860;52.018;8.536;2024-01-16T02:11:18;0.80;99.90
11609;DHT22;5860;52.018;8.536;2024-01-16T02:13:45;0.80;99.90
11609;DHT22;5860;52.018;8.536;2024-01-16T02:16:23;0.80;99.90
11609;DHT22;5860;52.018;8.536;2024-01-16T02:18:51;0.80;99.90
11609;DHT22;5860;52.018;8.536;2024-01-16T02:21:22;0.80;99.90
11609;DHT22;5860;52.018;8.536;2024-01-16T02:23:52;0.80;99.90
11609;DHT22;5860;52.018;8.536;2024-01-16T02:26:20;0.80;99.90
11609;DHT22;5860;52.018;8.536;2024-01-16T02:28:47;0.80;99.90
11609;DHT22;5860;52.018;8.536;2024-01-16T02:31:14;0.70;99.90
11609;DHT22;5860;52.018;8.536;2024-01-16T02:33:41;0.80;99.90
11609;DHT22;5860;52.018;8.536;2024-01-16T02:36:08;0.80;99.90
11609;DHT22;5860;52.018;8.536;2024-01-16T02:38:35;0.80;99.90
11609;DHT22;5860;52.018;8.536;2024-01-16T02:41:03;0.80;99.90
11609;DHT22;5860;52.018;8.536;2024-01-16T02:43:29;0.80;99.90
11609;DHT22;5860;52.018;8.536;2024-01-16T02:45:56;0.80;99.90
11609;DHT22;5860;52.018;8.536;2024-01-16T02:48:24;0.80;99.90
11609;DHT22;5860;52.018;8.536;2024-01-16T02:50:52;0.80;99.90
11609;DHT22;5860;52.018;8.536;2024-01-16T02:53:19;0.70;99.90
11609;DHT22;5860;52.018;8.536;2024-01-16T02:55:46;0.80;99.90
11609;DHT22;5860;52.018;8.536;2024-01-16T02:58:13;0.80;99.90
11609;DHT22;5860;52.018;8.536;2024-01-16T03:00:40;0.80;99.90
11609;DHT22;5860;52.018;8.536;2024-01-16T03:03:07;0.80;99.90
11609;DHT22;5860;52.018;8.536;2024-01-16T03:05:35;0.80;99.90
11609;DHT22;5860;52.018;8.536;2024-01-16T03:08:02;0.80;99.90
11609;DHT22;5860;52.018;8.536;2024-01-16T03:10:29;0.80;99.90
11609;DHT22;5860;52.018;8.536;2024-01-16T03:12:56;0.70;99.90
11609;DHT22;5860;52.018;8.536;2024-01-16T03:15:23;0.70;99.90
11609;DHT22;5860;52.018;8.536;2024-01-16T03:17:51;0.70;99.90
11609;DHT22;5860;52.018;8.536;2024-01-16T03:20:18;0.70;99.90
11609;DHT22;5860;52.018;8.536;2024-01-16T03:22:45;0.70;99.90
11609;DHT22;5860;52.018;8.536;2024-01-16T03:25:14;0.80;99.90
11609;DHT22;5860;52.018;8.536;2024-01-16T03:27:40;0.70;99.90
11609;DHT22;5860;52.018;8.536;2024-01-16T03:30:08;0.70;99.90
11609;DHT22;5860;52.018;8.536;2024-01-16T03:32:36;0.70;99.90
11609;DHT22;5860;52.018;8.536;2024-01-16T03:35:04;0.70;99.90
11609;DHT22;5860;52.018;8.536;2024-01-16T03:37:32;0.70;99.90
11609;DHT22;5860;52.018;8.536;2024-01-16T03:40:00;0.70;99.90
11609;DHT22;5860;52.018;8.536;2024-01-16T03:42:27;0.70;99.90
11609;DHT22;5860;52.018;8.536;2024-01-16T03:44:54;0.70;99.90
11609;DHT22;5860;52.018;8.536;2024-01-16T03:47:21;0.70;99.90
11609;DHT22;5860;52.018;8.536;2024-01-16T03:49:48;0.70;99.90
11609;DHT22;5860;52.018;8.536;2024-01-16T03:52:15;0.70;99.90
11609;DHT22;5860;52.018;8.536;2024-01-16T03:54:41;0.70;99.90
11609;DHT22;5860;52.018;8.536;2024-01-16T03:57:08;0.70;99.90
11609;DHT22;5860;52.018;8.536;2024-01-16T03:59:37;0.60;99.90
11609;DHT22;5860;52.018;8.536;2024-01-16T04:02:04;0.60;99.90
11609;DHT22;5860;52.018;8.536;2024-01-16T04:04:31;0.60;99.90
11609;DHT22;5860;52.018;8.536;2024-01-16T04:06:58;0.60;99.90
11609;DHT22;5860;52.018;8.536;2024-01-16T04:09:25;0.60;99.90
11609;DHT22;5860;52.018;8.536;2024-01-16T04:11:52;0.60;99.90
11609;DHT22;5860;52.018;8.536;2024-01-16T04:14:19;0.60;99.90
11609;DHT22;5860;52.018;8.536;2024-01-16T04:16:46;0.60;99.90
11609;DHT22;5860;52.018;8.536;2024-01-16T04:19:13;0.60;99.90
11609;DHT22;5860;52.018;8.536;2024-01-16T04:21:40;0.60;99.90
11609;DHT22;5860;52.018;8.536;2024-01-16T04:24:07;0.60;99.90
11609;DHT22;5860;52.018;8.536;2024-01-16T04:26:36;0.60;99.90
11609;DHT22;5860;52.018;8.536;2024-01-16T04:29:04;0.60;99.90
11609;DHT22;5860;52.018;8.536;2024-01-16T04:31:38;0.60;99.90
11609;DHT22;5860;52.018;8.536;2024-01-16T04:34:05;0.60;99.90
11609;DHT22;5860;52.018;8.536;2024-01-16T04:36:32;0.60;99.90
11609;DHT22;5860;52.018;8.536;2024-01-16T04:38:59;0.60;99.90
11609;DHT22;5860;52.018;8.536;2024-01-16T04:41:27;0.60;99.90
11609;DHT22;5860;52.018;8.536;2024-01-16T04:43:54;0.60;99.90
11609;DHT22;5860;52.018;8.536;2024-01-16T04:46:21;0.50;99.90
11609;DHT22;5860;52.018;8.536;2024-01-16T04:48:48;0.50;99.90
11609;DHT22;5860;52.018;8.536;2024-01-16T04:51:15;0.50;99.90
11609;DHT22;5860;52.018;8.536;2024-01-16T04:53:41;0.50;99.90
11609;DHT22;5860;52.018;8.536;2024-01-16T04:56:08;0.50;99.90
11609;DHT22;5860;52.018;8.536;2024-01-16T04:58:35;0.50;99.90
11609;DHT22;5860;52.018;8.536;2024-01-16T05:01:02;0.50;99.90
11609;DHT22;5860;52.018;8.536;2024-01-16T05:03:29;0.40;99.90
11609;DHT22;5860;52.018;8.536;2024-01-16T05:05:56;0.50;99.90
11609;DHT22;5860;52.018;8.536;2024-01-16T05:08:23;0.50;99.90
11609;DHT22;5860;52.018;8.536;2024-01-16T05:10:51;0.50;99.90
11609;DHT22;5860;52.018;8.536;2024-01-16T05:13:17;0.50;99.90
11609;DHT22;5860;52.018;8.536;2024-01-16T05:15:44;0.50;99.90
11609;DHT22;5860;52.018;8.536;2024-01-16T05:18:11;0.50;99.90
11609;DHT22;5860;52.018;8.536;2024-01-16T05:20:41;0.50;99.90
11609;DHT22;5860;52.018;8.536;2024-01-16T05:23:08;0.50;99.90
11609;DHT22;5860;52.018;8.536;2024-01-16T05:25:35;0.50;99.90
11609;DHT22;5860;52.018;8.536;2024-01-16T05:28:02;0.50;99.90
11609;DHT22;5860;52.018;8.536;2024-01-16T05:30:29;0.50;99.90
11609;DHT22;5860;52.018;8.536;2024-01-16T05:32:56;0.50;99.90
11609;DHT22;5860;52.018;8.536;2024-01-16T05:35:27;0.50;99.90
11609;DHT22;5860;52.018;8.536;2024-01-16T05:37:55;0.50;99.90
11609;DHT22;5860;52.018;8.536;2024-01-16T05:40:26;0.50;99.90
11609;DHT22;5860;52.018;8.536;2024-01-16T05:42:53;0.50;99.90
11609;DHT22;5860;52.018;8.536;2024-01-16T05:45:20;0.50;99.90
11609;DHT22;5860;52.018;8.536;2024-01-16T05:47:47;0.50;99.90
11609;DHT22;5860;52.018;8.536;2024-01-16T05:50:14;0.50;99.90
11609;DHT22;5860;52.018;8.536;2024-01-16T05:52:43;0.50;99.90
11609;DHT22;5860;52.018;8.536;2024-01-16T05:55:13;0.50;99.90
11609;DHT22;5860;52.018;8.536;2024-01-16T05:57:39;0.50;99.90
11609;DHT22;5860;52.018;8.536;2024-01-16T06:00:07;0.50;99.90
11609;DHT22;5860;52.018;8.536;2024-01-16T06:02:34;0.50;99.90
11609;DHT22;5860;52.018;8.536;2024-01-16T06:05:01;0.50;99.90
11609;DHT22;5860;52.018;8.536;2024-01-16T06:07:29;0.60;99.90
11609;DHT22;5860;52.018;8.536;2024-01-16T06:09:56;0.50;99.90
11609;DHT22;5860;52.018;8.536;2024-01-16T06:12:23;0.50;99.90
11609;DHT22;5860;52.018;8.536;2024-01-16T06:14:49;0.60;99.90
11609;DHT22;5860;52.018;8.536;2024-01-16T06:17:17;0.60;99.90
11609;DHT22;5860;52.018;8.536;2024-01-16T06:19:43;0.50;99.90
11609;DHT22;5860;52.018;8.536;2024-01-16T06:22:10;0.50;99.90
11609;DHT22;5860;52.018;8.536;2024-01-16T06:24:38;0.50;99.90
11609;DHT22;5860;52.018;8.536;2024-01-16T06:27:05;0.50;99.90
11609;DHT22;5860;52.018;8.536;2024-01-16T06:29:34;0.50;99.90
11609;DHT22;5860;52.018;8.536;2024-01-16T06:32:02;0.50;99.90
11609;DHT22;5860;52.018;8.536;2024-01-16T06:34:29;0.60;99.90
11609;DHT22;5860;52.018;8.536;2024-01-16T06:36:56;0.60;99.90
11609;DHT22;5860;52.018;8.536;2024-01-16T06:39:23;0.60;99.90
11609;DHT22;5860;52.018;8.536;2024-01-16T06:41:50;0.60;99.90
11609;DHT22;5860;52.018;8.536;2024-01-16T06:44:18;0.60;99.90
11609;DHT22;5860;52.018;8.536;2024-01-16T06:46:45;0.60;99.90
11609;DHT22;5860;52.018;8.536;2024-01-16T06:49:12;0.60;99.90
11609;DHT22;5860;52.018;8.536;2024-01-16T06:51:39;0.60;99.90
11609;DHT22;5860;52.018;8.536;2024-01-16T06:54:06;0.60;99.90
11609;DHT22;5860;52.018;8.536;2024-01-16T06:56:33;0.60;99.90
11609;DHT22;5860;52.018;8.536;2024-01-16T06:59:00;0.60;99.90
11609;DHT22;5860;52.018;8.536;2024-01-16T07:01:27;0.60;99.90
11609;DHT22;5860;52.018;8.536;2024-01-16T07:03:54;0.60;99.90
11609;DHT22;5860;52.018;8.536;2024-01-16T07:06:21;0.60;99.90
11609;DHT22;5860;52.018;8.536;2024-01-16T07:08:48;0.70;99.90
11609;DHT22;5860;52.018;8.536;2024-01-16T07:11:15;0.60;99.90
11609;DHT22;5860;52.018;8.536;2024-01-16T07:13:43;0.60;99.90
11609;DHT22;5860;52.018;8.536;2024-01-16T07:16:10;0.60;99.90
11609;DHT22;5860;52.018;8.536;2024-01-16T07:18:38;0.60;99.90
11609;DHT22;5860;52.018;8.536;2024-01-16T07:21:18;0.60;99.90
11609;DHT22;5860;52.018;8.536;2024-01-16T07:23:46;0.60;99.90
11609;DHT22;5860;52.018;8.536;2024-01-16T07:26:13;0.60;99.90
11609;DHT22;5860;52.018;8.536;2024-01-16T07:28:40;0.60;99.90
11609;DHT22;5860;52.018;8.536;2024-01-16T07:31:07;0.60;99.90
11609;DHT22;5860;52.018;8.536;2024-01-16T07:33:36;0.70;99.90
11609;DHT22;5860;52.018;8.536;2024-01-16T07:36:03;0.70;99.90
11609;DHT22;5860;52.018;8.536;2024-01-16T07:38:30;0.70;99.90
11609;DHT22;5860;52.018;8.536;2024-01-16T07:40:57;0.70;99.90
11609;DHT22;5860;52.018;8.536;2024-01-16T07:43:25;0.80;99.90
11609;DHT22;5860;52.018;8.536;2024-01-16T07:45:52;0.70;99.90
11609;DHT22;5860;52.018;8.536;2024-01-16T07:48:18;0.80;99.90
11609;DHT22;5860;52.018;8.536;2024-01-16T07:50:45;0.80;99.90
11609;DHT22;5860;52.018;8.536;2024-01-16T07:53:13;0.90;99.90
11609;DHT22;5860;52.018;8.536;2024-01-16T07:55:40;0.90;99.90
11609;DHT22;5860;52.018;8.536;2024-01-16T07:58:07;1.00;99.90
11609;DHT22;5860;52.018;8.536;2024-01-16T08:00:34;0.90;99.90
11609;DHT22;5860;52.018;8.536;2024-01-16T08:03:01;1.00;99.90
11609;DHT22;5860;52.018;8.536;2024-01-16T08:05:28;0.90;99.90
11609;DHT22;5860;52.018;8.536;2024-01-16T08:07:57;0.90;99.90
11609;DHT22;5860;52.018;8.536;2024-01-16T08:10:24;0.90;99.90
11609;DHT22;5860;52.018;8.536;2024-01-16T08:12:51;1.00;99.90
11609;DHT22;5860;52.018;8.536;2024-01-16T08:15:18;1.10;99.90
11609;DHT22;5860;52.018;8.536;2024-01-16T08:17:45;1.00;99.90
11609;DHT22;5860;52.018;8.536;2024-01-16T08:20:12;1.00;99.90
11609;DHT22;5860;52.018;8.536;2024-01-16T08:22:39;1.10;99.90
11609;DHT22;5860;52.018;8.536;2024-01-16T08:25:06;0.90;99.90
11609;DHT22;5860;52.018;8.536;2024-01-16T08:27:34;1.00;99.90
11609;DHT22;5860;52.018;8.536;2024-01-16T08:30:01;1.10;99.90
11609;DHT22;5860;52.018;8.536;2024-01-16T08:32:28;1.10;99.90
11609;DHT22;5860;52.018;8.536;2024-01-16T08:34:55;1.10;99.90
11609;DHT22;5860;52.018;8.536;2024-01-16T08:37:22;1.00;99.90
11609;DHT22;5860;52.018;8.536;2024-01-16T08:39:49;1.10;99.90
11609;DHT22;5860;52.018;8.536;2024-01-16T08:42:15;1.00;99.90
11609;DHT22;5860;52.018;8.536;2024-01-16T08:44:44;1.10;99.90
11609;DHT22;5860;52.018;8.536;2024-01-16T08:47:11;1.10;99.90
11609;DHT22;5860;52.018;8.536;2024-01-16T08:49:38;1.10;99.90
11609;DHT22;5860;52.018;8.536;2024-01-16T08:52:05;1.10;99.90
11609;DHT22;5860;52.018;8.536;2024-01-16T08:54:33;1.10;99.90
11609;DHT22;5860;52.018;8.536;2024-01-16T08:57:00;1.10;99.90
11609;DHT22;5860;52.018;8.536;2024-01-16T08:59:27;1.20;99.90
11609;DHT22;5860;52.018;8.536;2024-01-16T09:01:55;1.20;99.90
11609;DHT22;5860;52.018;8.536;2024-01-16T09:04:22;1.40;99.90
11609;DHT22;5860;52.018;8.536;2024-01-16T09:06:49;1.40;99.90
11609;DHT22;5860;52.018;8.536;2024-01-16T09:09:17;1.30;99.90
11609;DHT22;5860;52.018;8.536;2024-01-16T09:11:44;1.30;99.90
11609;DHT22;5860;52.018;8.536;2024-01-16T09:14:11;1.30;99.90
11609;DHT22;5860;52.018;8.536;2024-01-16T09:16:38;1.30;99.90
11609;DHT22;5860;52.018;8.536;2024-01-16T09:19:05;1.40;99.90
11609;DHT22;5860;52.018;8.536;2024-01-16T09:21:33;1.30;99.90
11609;DHT22;5860;52.018;8.536;2024-01-16T09:24:00;1.40;99.90
11609;DHT22;5860;52.018;8.536;2024-01-16T09:26:27;1.40;99.90
11609;DHT22;5860;52.018;8.536;2024-01-16T09:28:54;1.40;99.90
11609;DHT22;5860;52.018;8.536;2024-01-16T09:31:21;1.30;99.90
11609;DHT22;5860;52.018;8.536;2024-01-16T09:33:48;1.30;99.90
11609;DHT22;5860;52.018;8.536;2024-01-16T09:36:15;1.30;99.90
11609;DHT22;5860;52.018;8.536;2024-01-16T09:38:42;1.30;99.90
11609;DHT22;5860;52.018;8.536;2024-01-16T09:41:11;1.30;99.90
11609;DHT22;5860;52.018;8.536;2024-01-16T09:43:38;1.30;99.90
11609;DHT22;5860;52.018;8.536;2024-01-16T09:46:05;1.30;99.90
11609;DHT22;5860;52.018;8.536;2024-01-16T09:48:34;1.30;99.90
11609;DHT22;5860;52.018;8.536;2024-01-16T09:51:01;1.30;99.90
11609;DHT22;5860;52.018;8.536;2024-01-16T09:53:28;1.30;99.90
11609;DHT22;5860;52.018;8.536;2024-01-16T09:56:02;1.30;99.90
11609;DHT22;5860;52.018;8.536;2024-01-16T09:58:34;1.30;99.90
11609;DHT22;5860;52.018;8.536;2024-01-16T10:01:03;1.30;99.90
11609;DHT22;5860;52.018;8.536;2024-01-16T10:03:31;1.30;99.90
11609;DHT22;5860;52.018;8.536;2024-01-16T10:06:05;1.30;99.90
11609;DHT22;5860;52.018;8.536;2024-01-16T10:08:33;1.30;99.90
11609;DHT22;5860;52.018;8.536;2024-01-16T10:11:01;1.30;99.90
11609;DHT22;5860;52.018;8.536;2024-01-16T10:13:28;1.30;99.90
11609;DHT22;5860;52.018;8.536;2024-01-16T10:15:56;1.20;99.90
11609;DHT22;5860;52.018;8.536;2024-01-16T10:18:25;1.30;99.90
11609;DHT22;5860;52.018;8.536;2024-01-16T10:20:53;1.20;99.90
11609;DHT22;5860;52.018;8.536;2024-01-16T10:26:11;1.20;99.90
11609;DHT22;5860;52.018;8.536;2024-01-16T10:28:42;1.20;99.90
11609;DHT22;5860;52.018;8.536;2024-01-16T10:31:11;1.20;99.90
11609;DHT22;5860;52.018;8.536;2024-01-16T10:33:39;1.30;99.90
11609;DHT22;5860;52.018;8.536;2024-01-16T10:36:13;1.20;99.90
11609;DHT22;5860;52.018;8.536;2024-01-16T10:38:42;1.30;99.90
11609;DHT22;5860;52.018;8.536;2024-01-16T10:41:11;1.30;99.90
11609;DHT22;5860;52.018;8.536;2024-01-16T10:43:39;1.20;99.90
11609;DHT22;5860;52.018;8.536;2024-01-16T10:46:16;1.20;99.90
11609;DHT22;5860;52.018;8.536;2024-01-16T10:48:45;1.30;99.90
11609;DHT22;5860;52.018;8.536;2024-01-16T10:51:15;1.20;99.90
11609;DHT22;5860;52.018;8.536;2024-01-16T10:53:43;1.30;99.90
11609;DHT22;5860;52.018;8.536;2024-01-16T10:56:11;1.20;99.90
11609;DHT22;5860;52.018;8.536;2024-01-16T10:58:43;1.20;93.20
11609;DHT22;5860;52.018;8.536;2024-01-16T11:01:17;1.30;99.90
11609;DHT22;5860;52.018;8.536;2024-01-16T11:03:49;1.30;99.90
11609;DHT22;5860;52.018;8.536;2024-01-16T11:06:17;1.30;82.20
11609;DHT22;5860;52.018;8.536;2024-01-16T11:08:49;1.40;47.40
11609;DHT22;5860;52.018;8.536;2024-01-16T11:11:16;1.30;49.00
11609;DHT22;5860;52.018;8.536;2024-01-16T11:13:45;1.20;1.00
11609;DHT22;5860;52.018;8.536;2024-01-16T11:16:13;1.20;1.00
11609;DHT22;5860;52.018;8.536;2024-01-16T11:18:40;1.30;1.00
11609;DHT22;5860;52.018;8.536;2024-01-16T11:21:12;1.30;1.00
11609;DHT22;5860;52.018;8.536;2024-01-16T11:23:44;1.40;1.00
11609;DHT22;5860;52.018;8.536;2024-01-16T11:26:27;1.40;1.00
11609;DHT22;5860;52.018;8.536;2024-01-16T11:28:56;1.40;1.00
11609;DHT22;5860;52.018;8.536;2024-01-16T11:31:34;1.40;99.90
11609;DHT22;5860;52.018;8.536;2024-01-16T11:34:02;1.50;99.90
11609;DHT22;5860;52.018;8.536;2024-01-16T11:39:12;1.40;99.90
11609;DHT22;5860;52.018;8.536;2024-01-16T11:42:03;1.40;99.90
11609;DHT22;5860;52.018;8.536;2024-01-16T11:44:43;1.50;99.90
11609;DHT22;5860;52.018;8.536;2024-01-16T11:47:17;1.50;1.00
11609;DHT22;5860;52.018;8.536;2024-01-16T11:49:49;1.50;1.00
11609;DHT22;5860;52.018;8.536;2024-01-16T11:52:39;1.50;1.00
11609;DHT22;5860;52.018;8.536;2024-01-16T12:00:35;1.40;99.90
11609;DHT22;5860;52.018;8.536;2024-01-16T12:03:04;1.40;99.90
11609;DHT22;5860;52.018;8.536;2024-01-16T12:05:31;1.40;74.00
11609;DHT22;5860;52.018;8.536;2024-01-16T12:07:59;1.40;1.00
11609;DHT22;5860;52.018;8.536;2024-01-16T12:10:26;1.40;99.90
11609;DHT22;5860;52.018;8.536;2024-01-16T12:12:58;1.30;99.90
11609;DHT22;5860;52.018;8.536;2024-01-16T12:15:30;1.20;1.00
11609;DHT22;5860;52.018;8.536;2024-01-16T12:18:01;1.30;46.70
11609;DHT22;5860;52.018;8.536;2024-01-16T12:20:32;1.30;99.90
11609;DHT22;5860;52.018;8.536;2024-01-16T12:23:01;1.30;99.90
11609;DHT22;5860;52.018;8.536;2024-01-16T12:25:29;1.20;99.90
11609;DHT22;5860;52.018;8.536;2024-01-16T12:28:16;1.10;99.90
11609;DHT22;5860;52.018;8.536;2024-01-16T12:30:59;1.20;99.90
11609;DHT22;5860;52.018;8.536;2024-01-16T12:33:27;1.10;99.90
11609;DHT22;5860;52.018;8.536;2024-01-16T12:36:02;1.20;1.00
11609;DHT22;5860;52.018;8.536;2024-01-16T12:38:30;1.20;99.90
11609;DHT22;5860;52.018;8.536;2024-01-16T12:40:57;1.20;99.90
11609;DHT22;5860;52.018;8.536;2024-01-16T12:43:25;1.20;99.90
11609;DHT22;5860;52.018;8.536;2024-01-16T12:45:56;1.20;99.10
11609;DHT22;5860;52.018;8.536;2024-01-16T12:48:26;1.30;1.00
11609;DHT22;5860;52.018;8.536;2024-01-16T12:51:01;1.40;1.00
11609;DHT22;5860;52.018;8.536;2024-01-16T12:53:30;1.30;99.90
11609;DHT22;5860;52.018;8.536;2024-01-16T12:56:04;1.40;99.90
11609;DHT22;5860;52.018;8.536;2024-01-16T12:58:37;1.30;1.00
11609;DHT22;5860;52.018;8.536;2024-01-16T13:01:24;1.20;99.90
11609;DHT22;5860;52.018;8.536;2024-01-16T13:04:05;1.20;1.00
11609;DHT22;5860;52.018;8.536;2024-01-16T13:06:33;1.20;1.00
11609;DHT22;5860;52.018;8.536;2024-01-16T13:09:08;1.30;99.90
11609;DHT22;5860;52.018;8.536;2024-01-16T13:11:46;1.20;8.20
11609;DHT22;5860;52.018;8.536;2024-01-16T13:14:13;1.30;99.90
11609;DHT22;5860;52.018;8.536;2024-01-16T13:16:40;1.30;1.00
11609;DHT22;5860;52.018;8.536;2024-01-16T13:19:07;1.20;99.90
11609;DHT22;5860;52.018;8.536;2024-01-16T13:21:37;1.20;1.00
11609;DHT22;5860;52.018;8.536;2024-01-16T13:24:04;1.20;1.00
11609;DHT22;5860;52.018;8.536;2024-01-16T13:26:31;1.20;99.90
11609;DHT22;5860;52.018;8.536;2024-01-16T13:29:00;1.20;1.00
11609;DHT22;5860;52.018;8.536;2024-01-16T13:31:27;1.20;1.00
11609;DHT22;5860;52.018;8.536;2024-01-16T13:33:54;1.20;99.90
11609;DHT22;5860;52.018;8.536;2024-01-16T13:36:23;1.30;1.00
11609;DHT22;5860;52.018;8.536;2024-01-16T13:39:10;1.20;49.20
11609;DHT22;5860;52.018;8.536;2024-01-16T13:41:40;1.20;1.00
11609;DHT22;5860;52.018;8.536;2024-01-16T13:44:07;1.20;1.00
11609;DHT22;5860;52.018;8.536;2024-01-16T13:46:34;1.20;99.90
11609;DHT22;5860;52.018;8.536;2024-01-16T13:49:21;1.20;99.90
11609;DHT22;5860;52.018;8.536;2024-01-16T13:51:48;1.10;1.00
11609;DHT22;5860;52.018;8.536;2024-01-16T13:54:15;1.20;1.00
11609;DHT22;5860;52.018;8.536;2024-01-16T13:56:42;1.20;1.00
11609;DHT22;5860;52.018;8.536;2024-01-16T13:59:30;1.10;1.00
11609;DHT22;5860;52.018;8.536;2024-01-16T14:01:58;1.30;1.00
11609;DHT22;5860;52.018;8.536;2024-01-16T14:04:25;1.20;99.90
11609;DHT22;5860;52.018;8.536;2024-01-16T14:06:52;1.20;99.90
11609;DHT22;5860;52.018;8.536;2024-01-16T14:09:38;1.20;1.00
11609;DHT22;5860;52.018;8.536;2024-01-16T14:12:09;1.30;1.00
11609;DHT22;5860;52.018;8.536;2024-01-16T14:14:36;1.30;1.00
11609;DHT22;5860;52.018;8.536;2024-01-16T14:17:05;1.30;1.00
11609;DHT22;5860;52.018;8.536;2024-01-16T14:19:36;1.30;99.90
11609;DHT22;5860;52.018;8.536;2024-01-16T14:22:04;1.30;99.90
11609;DHT22;5860;52.018;8.536;2024-01-16T14:24:31;1.30;1.00
11609;DHT22;5860;52.018;8.536;2024-01-16T14:26:58;1.30;99.90
11609;DHT22;5860;52.018;8.536;2024-01-16T14:29:25;1.20;1.00
11609;DHT22;5860;52.018;8.536;2024-01-16T14:31:53;1.10;1.00
11609;DHT22;5860;52.018;8.536;2024-01-16T14:34:24;1.10;1.00
11609;DHT22;5860;52.018;8.536;2024-01-16T14:36:51;1.10;1.00
11609;DHT22;5860;52.018;8.536;2024-01-16T14:39:20;1.10;1.00
11609;DHT22;5860;52.018;8.536;2024-01-16T14:41:53;1.10;1.00
11609;DHT22;5860;52.018;8.536;2024-01-16T14:44:21;1.10;99.90
11609;DHT22;5860;52.018;8.536;2024-01-16T14:46:48;1.00;99.90
11609;DHT22;5860;52.018;8.536;2024-01-16T14:49:19;1.00;99.90
11609;DHT22;5860;52.018;8.536;2024-01-16T14:51:48;1.00;1.00
11609;DHT22;5860;52.018;8.536;2024-01-16T14:54:15;1.00;1.00
11609;DHT22;5860;52.018;8.536;2024-01-16T14:56:42;1.10;99.90
11609;DHT22;5860;52.018;8.536;2024-01-16T14:59:09;1.10;99.90
11609;DHT22;5860;52.018;8.536;2024-01-16T15:01:41;1.10;84.90
11609;DHT22;5860;52.018;8.536;2024-01-16T15:04:08;1.10;1.00
11609;DHT22;5860;52.018;8.536;2024-01-16T15:06:38;1.10;1.00
11609;DHT22;5860;52.018;8.536;2024-01-16T15:09:06;1.00;1.00
11609;DHT22;5860;52.018;8.536;2024-01-16T15:11:37;1.00;1.00
11609;DHT22;5860;52.018;8.536;2024-01-16T15:14:04;1.00;1.00
11609;DHT22;5860;52.018;8.536;2024-01-16T15:16:31;1.00;1.00
11609;DHT22;5860;52.018;8.536;2024-01-16T15:18:58;1.10;99.90
11609;DHT22;5860;52.018;8.536;2024-01-16T15:21:25;1.10;1.00
11609;DHT22;5860;52.018;8.536;2024-01-16T15:23:52;1.10;99.90
11609;DHT22;5860;52.018;8.536;2024-01-16T15:26:19;1.20;1.00
11609;DHT22;5860;52.018;8.536;2024-01-16T15:28:48;1.20;99.90
11609;DHT22;5860;52.018;8.536;2024-01-16T15:31:16;1.20;99.90
11609;DHT22;5860;52.018;8.536;2024-01-16T15:33:44;1.20;99.90
11609;DHT22;5860;52.018;8.536;2024-01-16T15:36:11;1.20;1.00
11609;DHT22;5860;52.018;8.536;2024-01-16T15:38:38;1.10;99.90
11609;DHT22;5860;52.018;8.536;2024-01-16T15:41:05;1.10;99.90
11609;DHT22;5860;52.018;8.536;2024-01-16T15:43:33;1.10;1.00
11609;DHT22;5860;52.018;8.536;2024-01-16T15:46:00;1.20;1.00
11609;DHT22;5860;52.018;8.536;2024-01-16T15:48:27;1.10;1.00
11609;DHT22;5860;52.018;8.536;2024-01-16T15:51:00;1.10;1.00
11609;DHT22;5860;52.018;8.536;2024-01-16T15:53:27;1.10;1.00
11609;DHT22;5860;52.018;8.536;2024-01-16T15:55:54;1.10;1.00
11609;DHT22;5860;52.018;8.536;2024-01-16T15:58:21;1.10;99.90
11609;DHT22;5860;52.018;8.536;2024-01-16T16:00:48;1.20;7.60
11609;DHT22;5860;52.018;8.536;2024-01-16T16:03:15;1.10;99.90
11609;DHT22;5860;52.018;8.536;2024-01-16T16:05:43;1.10;1.00
11609;DHT22;5860;52.018;8.536;2024-01-16T16:08:10;1.10;99.90
11609;DHT22;5860;52.018;8.536;2024-01-16T16:10:37;1.10;1.00
11609;DHT22;5860;52.018;8.536;2024-01-16T16:13:06;1.00;99.90
11609;DHT22;5860;52.018;8.536;2024-01-16T16:15:35;1.00;1.00
11609;DHT22;5860;52.018;8.536;2024-01-16T16:18:03;1.00;1.00
11609;DHT22;5860;52.018;8.536;2024-01-16T16:20:30;0.90;99.90
11609;DHT22;5860;52.018;8.536;2024-01-16T16:22:57;0.80;99.90